Time;durP1;ratioP1;P1;durP2;ratioP2;P2;SDS_P1;SDS_P2;PMS_P1;PMS_P2;Temp;Humidity;BMP_temperature;BMP_pressure;BME280_temperature;BME280_humidity;BME280_pressure;Samples;Min_cycle;Max_cycle;Signal;HPM_P1;HPM_P2
2023/03/23 00:02:38;;;;;;;11.23;9.07;;;;;;;;;;10192313;28;20423;-65
2023/03/23 00:07:30;;;;;;;12.98;10.07;;;;;;;;;;10191844;28;20101;-65
2023/03/23 00:12:32;;;;;;;11.48;10.30;;;;;;;;;;10191312;28;20048;-65
2023/03/23 00:17:26;;;;;;;12.70;10.20;;;;;;;;;;10191978;28;20055;-65
2023/03/23 00:22:21;;;;;;;10.20;9.20;;;;;;;;;;10191113;28;20185;-66
2023/03/23 00:27:14;;;;;;;10.30;8.68;;;;;;;;;;10191213;28;20503;-66
2023/03/23 00:32:12;;;;;;;10.13;8.02;;;;;;;;;;10191446;28;20130;-65
2023/03/23 00:37:05;;;;;;;8.23;7.30;;;;;;;;;;10190697;28;20044;-65
2023/03/23 00:42:00;;;;;;;9.88;6.15;;;;;;;;;;10185587;28;20079;-65
2023/03/23 00:46:52;;;;;;;7.43;6.25;;;;;;;;;;10190668;28;20067;-65
2023/03/23 00:51:44;;;;;;;8.55;7.25;;;;;;;;;;10190610;28;20079;-65
2023/03/23 00:56:36;;;;;;;10.43;6.25;;;;;;;;;;10189016;28;20594;-65
2023/03/23 01:01:28;;;;;;;10.90;6.45;;;;;;;;;;10182674;28;20048;-65
2023/03/23 01:06:22;;;;;;;10.23;6.03;;;;;;;;;;10173268;28;20048;-65
2023/03/23 01:11:15;;;;;;;10.18;7.30;;;;;;;;;;10172450;28;20052;-65
2023/03/23 01:16:07;;;;;;;7.70;6.55;;;;;;;;;;10189093;28;20474;-65
2023/03/23 01:21:14;;;;;;;9.95;7.70;;;;;;;;;;10176223;28;20039;-65
2023/03/23 01:26:27;;;;;;;7.55;5.90;;;;;;;;;;10189132;28;20131;-65
2023/03/23 01:31:23;;;;;;;8.48;6.03;;;;;;;;;;10188831;28;20044;-65
2023/03/23 01:36:18;;;;;;;9.00;7.20;;;;;;;;;;10170926;28;20044;-65
2023/03/23 01:41:11;;;;;;;8.15;7.25;;;;;;;;;;10172889;28;20040;-65
2023/03/23 01:46:05;;;;;;;10.90;7.40;;;;;;;;;;10177856;28;20059;-65
2023/03/23 01:51:08;;;;;;;7.75;6.95;;;;;;;;;;10185774;28;20054;-65
2023/03/23 01:56:01;;;;;;;9.35;7.13;;;;;;;;;;10185037;28;20084;-65
2023/03/23 02:00:55;;;;;;;7.38;6.68;;;;;;;;;;10172354;28;20067;-65
2023/03/23 02:05:47;;;;;;;11.25;7.88;;;;;;;;;;10177771;28;20044;-65
2023/03/23 02:10:45;;;;;;;9.20;6.32;;;;;;;;;;10178903;28;20048;-65
2023/03/23 02:16:15;;;;;;;7.50;6.18;;;;;;;;;;10168929;28;20040;-65
2023/03/23 02:21:07;;;;;;;;;;;;;;;;;;10136958;28;20064;-65
2023/03/23 02:26:36;;;;;;;12.25;9.13;;;;;;;;;;10186496;28;19974;-65
2023/03/23 02:31:53;;;;;;;10.80;9.70;;;;;;;;;;10184074;28;20131;-65
2023/03/23 02:36:58;;;;;;;12.68;10.50;;;;;;;;;;10153441;28;20047;-64
2023/03/23 02:42:05;;;;;;;13.77;11.10;;;;;;;;;;10173945;28;20074;-64
2023/03/23 02:47:00;;;;;;;22.08;15.52;;;;;;;;;;10167702;28;20101;-63
2023/03/23 02:51:52;;;;;;;26.27;16.92;;;;;;;;;;10181271;28;20048;-64
2023/03/23 02:56:44;;;;;;;17.70;13.43;;;;;;;;;;10150996;28;20044;-65
2023/03/23 03:01:55;;;;;;;15.57;13.20;;;;;;;;;;10164533;28;20085;-65
2023/03/23 03:07:08;;;;;;;21.13;14.38;;;;;;;;;;10178171;28;20055;-65
2023/03/23 03:12:08;;;;;;;28.00;15.38;;;;;;;;;;10168993;28;20429;-65
2023/03/23 03:17:24;;;;;;;17.13;13.52;;;;;;;;;;10179010;28;20044;-65
2023/03/23 03:22:17;;;;;;;16.58;12.20;;;;;;;;;;10176091;28;20082;-65
2023/03/23 03:27:14;;;;;;;15.00;12.00;;;;;;;;;;10183331;28;20075;-65
2023/03/23 03:32:12;;;;;;;15.68;12.98;;;;;;;;;;10151909;28;20537;-65
2023/03/23 03:37:05;;;;;;;14.82;13.23;;;;;;;;;;10156247;28;20040;-65
2023/03/23 03:42:01;;;;;;;13.13;11.57;;;;;;;;;;10169710;28;20048;-65
2023/03/23 03:46:54;;;;;;;16.08;12.25;;;;;;;;;;10181652;28;20198;-65
2023/03/23 03:51:45;;;;;;;15.30;13.00;;;;;;;;;;10170599;28;20064;-65
2023/03/23 03:56:45;;;;;;;13.93;12.48;;;;;;;;;;10184382;28;20052;-64
2023/03/23 04:01:55;;;;;;;16.60;12.13;;;;;;;;;;10184439;28;20055;-64
2023/03/23 04:06:48;;;;;;;13.52;12.13;;;;;;;;;;10167022;28;20619;-65
2023/03/23 04:11:42;;;;;;;12.38;11.05;;;;;;;;;;10166167;28;20048;-65
2023/03/23 04:17:00;;;;;;;11.35;9.50;;;;;;;;;;10184936;28;20058;-65
2023/03/23 04:21:52;;;;;;;10.73;8.35;;;;;;;;;;10182794;28;20052;-64
2023/03/23 04:26:45;;;;;;;10.57;9.27;;;;;;;;;;10191291;28;20040;-65
2023/03/23 04:31:45;;;;;;;11.40;9.93;;;;;;;;;;10180806;28;20512;-64
2023/03/23 04:36:52;;;;;;;16.10;11.27;;;;;;;;;;10176669;28;20040;-64
2023/03/23 04:41:51;;;;;;;18.77;13.48;;;;;;;;;;10162432;28;20035;-64
2023/03/23 04:47:02;;;;;;;14.38;11.82;;;;;;;;;;10164667;28;20052;-64
2023/03/23 04:51:59;;;;;;;15.80;12.18;;;;;;;;;;10176597;28;20147;-64
2023/03/23 04:57:08;;;;;;;12.27;10.32;;;;;;;;;;10172731;28;20063;-65
2023/03/23 05:02:03;;;;;;;11.43;9.88;;;;;;;;;;10158989;28;20378;-65
2023/03/23 05:06:55;;;;;;;12.10;9.65;;;;;;;;;;10162986;28;20052;-64
2023/03/23 05:11:52;;;;;;;10.75;7.03;;;;;;;;;;10171623;28;20051;-67
2023/03/23 05:16:48;;;;;;;10.00;6.85;;;;;;;;;;10164799;28;20048;-64
2023/03/23 05:21:44;;;;;;;10.23;6.10;;;;;;;;;;10164917;28;20493;-64
2023/03/23 05:26:37;;;;;;;9.77;6.68;;;;;;;;;;10176180;28;20081;-64
2023/03/23 05:31:35;;;;;;;7.57;6.80;;;;;;;;;;10167230;28;20048;-64
2023/03/23 05:36:27;;;;;;;12.75;8.13;;;;;;;;;;10161281;28;20114;-64
2023/03/23 05:41:46;;;;;;;13.48;9.88;;;;;;;;;;10167045;28;20094;-63
2023/03/23 05:46:39;;;;;;;10.50;9.45;;;;;;;;;;10150670;28;20097;-63
2023/03/23 05:51:37;;;;;;;12.05;8.48;;;;;;;;;;10170699;28;20049;-65
2023/03/23 05:56:30;;;;;;;7.88;7.18;;;;;;;;;;10166998;28;20108;-62
2023/03/23 06:01:41;;;;;;;11.52;6.07;;;;;;;;;;10140296;28;20492;-64
2023/03/23 06:06:36;;;;;;;9.95;5.65;;;;;;;;;;10168247;28;20044;-64
2023/03/23 06:11:34;;;;;;;7.28;6.03;;;;;;;;;;10169065;28;20036;-62
2023/03/23 06:16:45;;;;;;;9.02;6.05;;;;;;;;;;10178412;28;20459;-62
2023/03/23 06:21:39;;;;;;;8.55;5.90;;;;;;;;;;10173526;28;20043;-62
2023/03/23 06:26:41;;;;;;;9.18;6.47;;;;;;;;;;10167115;28;20048;-63
2023/03/23 06:31:44;;;;;;;7.95;6.40;;;;;;;;;;10172131;28;20063;-62
2023/03/23 06:36:38;;;;;;;7.55;5.50;;;;;;;;;;10151708;28;20138;-62
2023/03/23 06:41:43;;;;;;;12.10;5.55;;;;;;;;;;10173907;28;20052;-62
2023/03/23 06:46:36;;;;;;;11.18;6.53;;;;;;;;;;10178324;28;20059;-62
2023/03/23 06:51:50;;;;;;;10.27;6.05;;;;;;;;;;10174225;28;20044;-62
2023/03/23 06:56:43;;;;;;;9.95;5.60;;;;;;;;;;10172223;28;20047;-63
2023/03/23 07:01:36;;;;;;;12.55;7.55;;;;;;;;;;10182250;28;20047;-62
2023/03/23 07:06:28;;;;;;;9.77;6.22;;;;;;;;;;10178115;28;20052;-63
2023/03/23 07:11:24;;;;;;;11.00;5.65;;;;;;;;;;10166258;28;20048;-63
2023/03/23 07:16:17;;;;;;;8.13;5.32;;;;;;;;;;10175692;28;20063;-63
2023/03/23 07:21:09;;;;;;;11.45;6.03;;;;;;;;;;10171409;28;20054;-63
2023/03/23 07:26:03;;;;;;;10.43;6.32;;;;;;;;;;10174437;28;20092;-63
2023/03/23 07:31:04;;;;;;;9.00;6.13;;;;;;;;;;10165580;28;20047;-63
2023/03/23 07:36:00;;;;;;;11.18;6.55;;;;;;;;;;10176416;28;20412;-63
2023/03/23 07:40:52;;;;;;;9.35;6.68;;;;;;;;;;10177031;28;20118;-63
2023/03/23 07:45:45;;;;;;;10.50;5.95;;;;;;;;;;10182159;28;20527;-63
2023/03/23 07:50:39;;;;;;;6.78;5.88;;;;;;;;;;10182943;28;20039;-63
2023/03/23 07:55:34;;;;;;;10.75;6.03;;;;;;;;;;10190428;28;20055;-63
2023/03/23 08:00:48;;;;;;;8.30;5.47;;;;;;;;;;10191616;28;20470;-63
2023/03/23 08:05:44;;;;;;;8.77;6.57;;;;;;;;;;10174560;28;20043;-63
2023/03/23 08:11:06;;;;;;;8.70;6.72;;;;;;;;;;10118793;28;20083;-63
2023/03/23 08:16:09;;;;;;;8.20;5.82;;;;;;;;;;10197952;28;20044;-63
2023/03/23 08:21:24;;;;;;;9.95;6.32;;;;;;;;;;10180973;28;20067;-63
2023/03/23 08:26:31;;;;;;;11.65;6.03;;;;;;;;;;10172965;28;20377;-63
2023/03/23 08:31:44;;;;;;;10.57;7.28;;;;;;;;;;10190692;28;20535;-63
2023/03/23 08:36:51;;;;;;;8.83;6.67;;;;;;;;;;10172875;28;20040;-63
2023/03/23 08:41:59;;;;;;;11.70;6.50;;;;;;;;;;10180922;28;20514;-63
2023/03/23 08:47:13;;;;;;;10.30;6.32;;;;;;;;;;10187324;28;20139;-62
2023/03/23 08:52:24;;;;;;;6.57;5.68;;;;;;;;;;10190589;28;20087;-63
2023/03/23 08:57:38;;;;;;;8.43;6.40;;;;;;;;;;10183561;28;20040;-63
2023/03/23 09:02:55;;;;;;;8.35;5.68;;;;;;;;;;10170666;28;20044;-63
2023/03/23 09:07:54;;;;;;;10.77;6.70;;;;;;;;;;10173154;28;20132;-63
2023/03/23 09:12:47;;;;;;;11.25;8.10;;;;;;;;;;10188943;28;20057;-63
2023/03/23 09:17:41;;;;;;;11.60;7.70;;;;;;;;;;10182182;28;20048;-63
2023/03/23 09:22:34;;;;;;;9.45;5.97;;;;;;;;;;10174412;28;20135;-63
2023/03/23 09:27:27;;;;;;;12.32;6.47;;;;;;;;;;10188765;28;20048;-63
2023/03/23 09:32:22;;;;;;;11.23;7.13;;;;;;;;;;10189216;28;20048;-63
2023/03/23 09:37:14;;;;;;;7.72;6.32;;;;;;;;;;10183877;28;20518;-63
2023/03/23 09:42:41;;;;;;;8.43;6.78;;;;;;;;;;10187802;28;20040;-63
2023/03/23 09:48:04;;;;;;;9.93;6.97;;;;;;;;;;10100830;28;20079;-63
2023/03/23 09:52:59;;;;;;;12.27;7.75;;;;;;;;;;10106857;28;20071;-63
2023/03/23 09:58:05;;;;;;;11.63;7.93;;;;;;;;;;10105493;28;20051;-63
2023/03/23 10:03:05;;;;;;;10.75;8.32;;;;;;;;;;10107094;28;20456;-63
2023/03/23 10:07:58;;;;;;;10.38;8.25;;;;;;;;;;10103258;28;20040;-63
2023/03/23 10:12:56;;;;;;;11.55;8.25;;;;;;;;;;10106343;28;20444;-63
2023/03/23 10:18:21;;;;;;;12.13;8.40;;;;;;;;;;10120226;28;20041;-63
2023/03/23 10:23:17;;;;;;;12.48;8.43;;;;;;;;;;10128911;28;20041;-63
2023/03/23 10:28:12;;;;;;;11.13;8.23;;;;;;;;;;10106146;28;20099;-63
2023/03/23 10:33:34;;;;;;;16.63;8.02;;;;;;;;;;10105790;28;20132;-63
2023/03/23 10:38:37;;;;;;;13.85;7.50;;;;;;;;;;10103570;28;20080;-63
2023/03/23 10:43:29;;;;;;;10.45;7.00;;;;;;;;;;10113080;28;20063;-63
2023/03/23 10:48:30;;;;;;;10.40;6.47;;;;;;;;;;10184998;28;20060;-63
2023/03/23 10:53:29;;;;;;;8.70;5.88;;;;;;;;;;10164732;28;20123;-63
2023/03/23 10:58:34;;;;;;;9.35;6.22;;;;;;;;;;10168903;28;20044;-63
2023/03/23 11:03:40;;;;;;;9.10;5.88;;;;;;;;;;10182316;28;20113;-63
2023/03/23 11:08:36;;;;;;;10.93;7.07;;;;;;;;;;10185619;28;20562;-63
2023/03/23 11:13:32;;;;;;;12.32;7.88;;;;;;;;;;10158428;28;20072;-63
2023/03/23 11:18:42;;;;;;;12.68;8.77;;;;;;;;;;10194333;28;20048;-63
2023/03/23 11:23:36;;;;;;;12.82;10.27;;;;;;;;;;10183962;28;20043;-63
2023/03/23 11:28:32;;;;;;;17.15;11.82;;;;;;;;;;10171494;28;20046;-63
2023/03/23 11:33:25;;;;;;;14.23;12.25;;;;;;;;;;10182844;28;20044;-63
2023/03/23 11:38:19;;;;;;;16.63;14.45;;;;;;;;;;10192624;28;20123;-63
2023/03/23 11:43:22;;;;;;;14.90;13.38;;;;;;;;;;10192995;28;20032;-63
2023/03/23 11:48:33;;;;;;;16.67;13.98;;;;;;;;;;10187913;28;20503;-63
2023/03/23 11:53:47;;;;;;;20.95;13.52;;;;;;;;;;10192369;28;20040;-63
2023/03/23 11:58:39;;;;;;;14.10;11.07;;;;;;;;;;10179256;28;20055;-63
2023/03/23 12:03:46;;;;;;;14.38;10.85;;;;;;;;;;10191390;28;20044;-63
2023/03/23 12:09:10;;;;;;;13.15;10.63;;;;;;;;;;10192200;28;20109;-63
2023/03/23 12:14:06;;;;;;;14.50;10.80;;;;;;;;;;10181764;28;20451;-64
2023/03/23 12:19:26;;;;;;;16.27;9.60;;;;;;;;;;10188357;28;20105;-63
2023/03/23 12:24:31;;;;;;;13.55;10.70;;;;;;;;;;10190090;28;20047;-63
2023/03/23 12:29:50;;;;;;;20.70;10.77;;;;;;;;;;10190281;28;20071;-63
2023/03/23 12:34:52;;;;;;;13.85;12.13;;;;;;;;;;10189739;28;20408;-62
2023/03/23 12:39:52;;;;;;;15.85;12.30;;;;;;;;;;10169202;28;20051;-63
2023/03/23 12:45:12;;;;;;;13.32;11.18;;;;;;;;;;10189572;28;20508;-63
2023/03/23 12:50:30;;;;;;;17.95;10.85;;;;;;;;;;10104420;28;20127;-63
2023/03/23 12:55:30;;;;;;;12.75;10.10;;;;;;;;;;10203729;27;20109;-63
2023/03/23 13:00:26;;;;;;;12.95;11.57;;;;;;;;;;10171999;28;20055;-63
2023/03/23 13:05:24;;;;;;;15.85;13.02;;;;;;;;;;10172425;28;20051;-62
2023/03/23 13:10:20;;;;;;;15.32;12.48;;;;;;;;;;10189519;28;20497;-63
2023/03/23 13:15:34;;;;;;;14.68;12.98;;;;;;;;;;10169200;28;20062;-64
2023/03/23 13:20:51;;;;;;;15.27;13.57;;;;;;;;;;10188309;28;20040;-63
2023/03/23 13:26:03;;;;;;;17.30;14.60;;;;;;;;;;10170519;28;20040;-64
2023/03/23 13:30:54;;;;;;;19.40;14.20;;;;;;;;;;10187571;28;20051;-63
2023/03/23 13:35:48;;;;;;;18.77;13.90;;;;;;;;;;10187768;28;20196;-63
2023/03/23 13:40:43;;;;;;;19.40;14.02;;;;;;;;;;10172468;28;20048;-63
2023/03/23 13:45:47;;;;;;;18.67;13.10;;;;;;;;;;10189307;28;20060;-64
2023/03/23 13:51:23;;;;;;;16.75;12.32;;;;;;;;;;10183652;28;20408;-63
2023/03/23 13:56:40;;;;;;;19.98;12.75;;;;;;;;;;10197923;28;20519;-63
2023/03/23 14:01:41;;;;;;;18.05;12.27;;;;;;;;;;10186845;28;20039;-63
2023/03/23 14:06:35;;;;;;;18.23;13.85;;;;;;;;;;10182481;28;20121;-63
2023/03/23 14:11:41;;;;;;;15.93;12.57;;;;;;;;;;10173753;28;20409;-64
2023/03/23 14:16:37;;;;;;;17.13;12.93;;;;;;;;;;10164889;28;20493;-64
2023/03/23 14:21:41;;;;;;;26.20;15.57;;;;;;;;;;10173053;28;20386;-66
2023/03/23 14:26:35;;;;;;;18.08;13.27;;;;;;;;;;10170963;28;20048;-63
2023/03/23 14:31:27;;;;;;;19.65;13.60;;;;;;;;;;10180913;28;20106;-63
2023/03/23 14:36:43;;;;;;;15.82;13.48;;;;;;;;;;10159050;28;20058;-63
2023/03/23 14:41:35;;;;;;;20.58;13.43;;;;;;;;;;10184827;28;20078;-64
2023/03/23 14:46:30;;;;;;;18.30;13.25;;;;;;;;;;10178247;28;20113;-64
2023/03/23 14:51:24;;;;;;;17.75;12.82;;;;;;;;;;10184824;28;20569;-64
2023/03/23 14:56:18;;;;;;;16.73;13.23;;;;;;;;;;10182801;28;20073;-64
2023/03/23 15:01:13;;;;;;;22.35;14.30;;;;;;;;;;10172299;28;20048;-64
2023/03/23 15:06:13;;;;;;;18.25;14.88;;;;;;;;;;10180490;28;20051;-64
2023/03/23 15:11:14;;;;;;;21.92;14.60;;;;;;;;;;10178147;28;20040;-64
2023/03/23 15:16:34;;;;;;;16.40;13.82;;;;;;;;;;10177055;28;20400;-64
2023/03/23 15:21:36;;;;;;;20.60;17.08;;;;;;;;;;10175986;28;20051;-65
2023/03/23 15:26:52;;;;;;;18.92;16.67;;;;;;;;;;10153096;28;20093;-64
2023/03/23 15:31:51;;;;;;;30.00;17.50;;;;;;;;;;10167716;28;20412;-64
2023/03/23 15:36:44;;;;;;;23.70;17.87;;;;;;;;;;10171445;28;20068;-65
2023/03/23 15:41:47;;;;;;;21.33;17.17;;;;;;;;;;10176349;28;20040;-64
2023/03/23 15:46:51;;;;;;;29.38;23.13;;;;;;;;;;10175521;28;20578;-64
2023/03/23 15:51:43;;;;;;;23.58;17.25;;;;;;;;;;10174376;28;20098;-64
2023/03/23 15:56:35;;;;;;;28.73;18.00;;;;;;;;;;10166198;28;20067;-64
2023/03/23 16:01:28;;;;;;;27.75;19.40;;;;;;;;;;10170519;28;20077;-64
2023/03/23 16:06:23;;;;;;;28.00;18.45;;;;;;;;;;10175998;28;20055;-64
2023/03/23 16:11:18;;;;;;;29.88;20.65;;;;;;;;;;10172792;28;20051;-64
2023/03/23 16:16:15;;;;;;;27.45;21.20;;;;;;;;;;10184765;28;20064;-64
2023/03/23 16:21:09;;;;;;;27.77;20.67;;;;;;;;;;10163161;28;20432;-63
2023/03/23 16:26:03;;;;;;;26.20;17.88;;;;;;;;;;10184398;28;20048;-63
2023/03/23 16:30:56;;;;;;;33.60;20.48;;;;;;;;;;10175032;28;20115;-63
2023/03/23 16:35:49;;;;;;;35.50;21.17;;;;;;;;;;10178047;28;20059;-63
2023/03/23 16:40:43;;;;;;;36.67;21.35;;;;;;;;;;10175912;28;20058;-63
2023/03/23 16:45:39;;;;;;;34.53;20.98;;;;;;;;;;10175466;28;20071;-63
2023/03/23 16:50:36;;;;;;;33.10;22.25;;;;;;;;;;10172811;28;20547;-63
2023/03/23 16:55:30;;;;;;;27.02;20.17;;;;;;;;;;10182436;28;20044;-63
2023/03/23 17:00:25;;;;;;;32.83;21.08;;;;;;;;;;10183838;28;20075;-63
2023/03/23 17:05:21;;;;;;;32.70;19.58;;;;;;;;;;10184658;28;20048;-63
2023/03/23 17:10:16;;;;;;;40.45;22.02;;;;;;;;;;10189193;28;20040;-63
2023/03/23 17:15:10;;;;;;;35.15;21.92;;;;;;;;;;10187915;28;20051;-63
2023/03/23 17:20:06;;;;;;;30.65;18.85;;;;;;;;;;10188815;28;20048;-63
2023/03/23 17:25:00;;;;;;;43.22;19.65;;;;;;;;;;10187934;28;20047;-63
2023/03/23 17:29:53;;;;;;;50.83;21.23;;;;;;;;;;10180283;28;20044;-63
2023/03/23 17:34:47;;;;;;;37.70;20.65;;;;;;;;;;10170496;28;20048;-63
2023/03/23 17:39:40;;;;;;;39.90;22.88;;;;;;;;;;10180318;28;20043;-63
2023/03/23 17:44:36;;;;;;;31.75;22.55;;;;;;;;;;10179830;28;20071;-63
2023/03/23 17:49:30;;;;;;;57.08;28.60;;;;;;;;;;10178913;28;20048;-64
2023/03/23 17:54:24;;;;;;;33.90;25.05;;;;;;;;;;10178742;28;20048;-63
2023/03/23 17:59:18;;;;;;;43.17;23.83;;;;;;;;;;10176855;28;20071;-63
2023/03/23 18:04:13;;;;;;;38.10;21.52;;;;;;;;;;10178553;28;20047;-64
2023/03/23 18:09:06;;;;;;;33.83;22.38;;;;;;;;;;10181168;28;20036;-64
2023/03/23 18:13:59;;;;;;;31.70;19.48;;;;;;;;;;10179888;28;20052;-64
2023/03/23 18:18:53;;;;;;;30.45;21.50;;;;;;;;;;10182135;28;20102;-64
2023/03/23 18:23:46;;;;;;;33.55;20.95;;;;;;;;;;10178472;28;20458;-64
2023/03/23 18:28:51;;;;;;;34.75;21.73;;;;;;;;;;10173496;28;20393;-64
2023/03/23 18:33:48;;;;;;;31.67;21.23;;;;;;;;;;10166460;28;20041;-64
2023/03/23 18:38:42;;;;;;;28.55;19.50;;;;;;;;;;10174776;28;20047;-63
2023/03/23 18:43:36;;;;;;;37.88;22.15;;;;;;;;;;10178437;28;20493;-64
2023/03/23 18:48:29;;;;;;;40.08;23.02;;;;;;;;;;10177781;28;20679;-64
2023/03/23 18:53:22;;;;;;;29.52;22.55;;;;;;;;;;10185674;28;20047;-64
2023/03/23 18:58:15;;;;;;;32.33;22.25;;;;;;;;;;10185962;28;20492;-64
2023/03/23 19:03:09;;;;;;;33.63;21.70;;;;;;;;;;10178570;28;20105;-64
2023/03/23 19:08:04;;;;;;;37.03;24.10;;;;;;;;;;10184061;28;20127;-64
2023/03/23 19:12:57;;;;;;;31.95;22.42;;;;;;;;;;10176416;28;20062;-64
2023/03/23 19:17:54;;;;;;;36.75;22.80;;;;;;;;;;10166464;28;20438;-64
2023/03/23 19:22:48;;;;;;;42.78;22.85;;;;;;;;;;10166683;28;20052;-64
2023/03/23 19:27:42;;;;;;;36.95;22.10;;;;;;;;;;10175959;28;20082;-63
2023/03/23 19:32:55;;;;;;;45.95;25.63;;;;;;;;;;10173274;28;20067;-63
2023/03/23 19:37:49;;;;;;;43.45;25.63;;;;;;;;;;10172992;28;20052;-64
2023/03/23 19:42:43;;;;;;;40.92;29.25;;;;;;;;;;10166004;28;20052;-64
2023/03/23 19:47:37;;;;;;;47.17;28.50;;;;;;;;;;10165680;28;20066;-64
2023/03/23 19:52:31;;;;;;;35.85;26.67;;;;;;;;;;10181214;28;20048;-63
2023/03/23 19:57:25;;;;;;;40.50;27.67;;;;;;;;;;10173307;28;20548;-64
2023/03/23 20:02:19;;;;;;;40.42;27.55;;;;;;;;;;10180991;28;20058;-63
2023/03/23 20:07:13;;;;;;;44.35;27.55;;;;;;;;;;10182218;28;20044;-64
2023/03/23 20:12:09;;;;;;;36.40;24.17;;;;;;;;;;10174449;28;20160;-64
2023/03/23 20:17:08;;;;;;;38.72;25.98;;;;;;;;;;10178296;28;20044;-63
2023/03/23 20:22:01;;;;;;;38.05;23.65;;;;;;;;;;10182079;28;20559;-63
2023/03/23 20:26:54;;;;;;;34.50;25.08;;;;;;;;;;10177156;28;20539;-63
2023/03/23 20:31:49;;;;;;;46.35;25.52;;;;;;;;;;10166847;28;20052;-64
2023/03/23 20:36:45;;;;;;;35.58;25.80;;;;;;;;;;10173963;28;20059;-65
2023/03/23 20:41:39;;;;;;;38.97;24.02;;;;;;;;;;10163835;28;20048;-66
2023/03/23 20:46:33;;;;;;;36.17;23.77;;;;;;;;;;10166197;28;20109;-65
2023/03/23 20:51:26;;;;;;;32.45;25.48;;;;;;;;;;10158410;28;20040;-64
2023/03/23 20:56:20;;;;;;;31.15;23.50;;;;;;;;;;10163232;28;20789;-64
2023/03/23 21:01:14;;;;;;;32.25;24.80;;;;;;;;;;10167198;28;20055;-65
2023/03/23 21:06:09;;;;;;;40.50;27.15;;;;;;;;;;10169619;28;20097;-65
2023/03/23 21:11:05;;;;;;;69.93;44.45;;;;;;;;;;10168206;28;20052;-65
2023/03/23 21:16:01;;;;;;;41.70;31.27;;;;;;;;;;10183392;28;20559;-64
2023/03/23 21:20:56;;;;;;;30.95;24.55;;;;;;;;;;10188839;28;20123;-65
2023/03/23 21:25:49;;;;;;;33.65;24.27;;;;;;;;;;10187473;28;20101;-64
2023/03/23 21:30:44;;;;;;;34.13;23.42;;;;;;;;;;10188669;28;20162;-65
2023/03/23 21:35:38;;;;;;;35.75;26.45;;;;;;;;;;10179362;28;20048;-65
2023/03/23 21:40:32;;;;;;;34.70;23.55;;;;;;;;;;10179921;28;20044;-65
2023/03/23 21:45:27;;;;;;;37.83;25.38;;;;;;;;;;10188915;28;20129;-65
2023/03/23 21:50:23;;;;;;;42.47;30.83;;;;;;;;;;10183375;28;20562;-66
2023/03/23 21:55:16;;;;;;;44.40;32.22;;;;;;;;;;10187258;28;20080;-65
2023/03/23 22:00:13;;;;;;;42.78;31.92;;;;;;;;;;10187451;28;20055;-66
2023/03/23 22:05:09;;;;;;;41.92;29.98;;;;;;;;;;10187883;28;20073;-66
2023/03/23 22:10:02;;;;;;;40.88;29.15;;;;;;;;;;10187234;28;20063;-66
2023/03/23 22:14:55;;;;;;;44.42;29.83;;;;;;;;;;10181618;28;20040;-65
2023/03/23 22:19:48;;;;;;;34.63;27.85;;;;;;;;;;10181008;28;20074;-66
2023/03/23 22:24:41;;;;;;;41.83;28.55;;;;;;;;;;10185819;28;20074;-66
2023/03/23 22:29:35;;;;;;;34.38;26.50;;;;;;;;;;10184783;28;20052;-65
2023/03/23 22:34:31;;;;;;;34.10;27.48;;;;;;;;;;10183736;28;20048;-66
2023/03/23 22:39:24;;;;;;;38.95;27.27;;;;;;;;;;10186604;28;20077;-66
2023/03/23 22:44:18;;;;;;;33.60;25.90;;;;;;;;;;10183701;28;20052;-65
2023/03/23 22:49:11;;;;;;;43.35;28.15;;;;;;;;;;10186937;28;20142;-66
2023/03/23 22:54:05;;;;;;;35.17;26.25;;;;;;;;;;10186049;28;20481;-66
2023/03/23 22:58:59;;;;;;;35.72;26.58;;;;;;;;;;10177701;28;20052;-66
2023/03/23 23:03:52;;;;;;;42.90;27.65;;;;;;;;;;10183698;28;20403;-65
2023/03/23 23:08:47;;;;;;;33.08;24.98;;;;;;;;;;10184217;28;20036;-66
2023/03/23 23:13:40;;;;;;;34.08;23.73;;;;;;;;;;10185612;28;20047;-66
2023/03/23 23:18:34;;;;;;;36.97;22.67;;;;;;;;;;10186035;28;20496;-66
2023/03/23 23:23:28;;;;;;;31.60;21.90;;;;;;;;;;10180289;28;20118;-66
2023/03/23 23:28:21;;;;;;;27.50;18.85;;;;;;;;;;10183346;28;20072;-66
2023/03/23 23:33:17;;;;;;;32.33;20.73;;;;;;;;;;10193879;28;20455;-66
2023/03/23 23:38:11;;;;;;;25.55;18.02;;;;;;;;;;10194045;28;20048;-65
2023/03/23 23:43:05;;;;;;;27.65;18.70;;;;;;;;;;10193806;28;20390;-65
2023/03/23 23:47:59;;;;;;;26.33;17.30;;;;;;;;;;10193090;28;20131;-65
2023/03/23 23:52:53;;;;;;;25.98;17.63;;;;;;;;;;10193397;28;20097;-65
2023/03/23 23:57:47;;;;;;;28.92;17.17;;;;;;;;;;10192576;28;20561;-65
